Washington, Kansas
Current Conditions -  °F | °C
As of 4:15 AM on Sunday 25 Jan 2015 (Local Time) from KMYZ Reporting Station
Overcast Overcast  
Wind Chill: 31°   Ceiling: 2500
Heat Index: 41°   Visibility: 10mi
Dew Point: 34°   Wind: 24mph
Humidity: 76%   Direction: 320°NW
Pressure: 29.73"   Gusts: 37mph
Location:  39.82°N, 97.05°W
Report Text: KMYZ 251015Z AUTO 32021G32KT 10SM OVC025 05/01 A2973 RMK AO2
Loading
Personal Weather Stations






























Interactive Weather Map New forecast layout! Learn more

10-Day Weather Forecast

Advertisements
Track Severe Weather on mobile